Aduana, Mexico

8:13 PM EDT on July 23, 2017 (GMT -0400)
Paseo del mar Residencial Campestre Cancun | | Change Station

Elev 26 ft 21.10 °N, 86.85 °W | Updated 1 minute ago

Mostly Cloudy
Mostly Cloudy
90.3 °F
Feels Like 121 °F
N
1.3
Wind Variable Wind from NE
Gusts 2.5 mph

Today
High -- | Low -- °F
--% Chance of Precip.
Yesterday
High -- | Low -- °F
Precip. -- in
Pressure 29.95 in
Visibility 7.0 miles
Clouds Mostly Cloudy 1500 ft
Mostly Cloudy 25000 ft
Heat Index 121 °F
Dew Point 86 °F
Humidity 88%
Rainfall 0.00 in
Snow Depth Not available.
7:18 AM 8:29 PM
New Moon, 1% visible
METAR MMCZ 232352Z 08008KT 7SM BKN015TCU BKN250 30/26 A2994 RMK SLP142 57003 964 8/208
Pressure 29.95 in
Visibility 7.0 miles
Clouds Mostly Cloudy 1500 ft
Mostly Cloudy 25000 ft
Heat Index 121 °F
Dew Point 86 °F
Humidity 88%
Rainfall 0.00 in
Snow Depth Not available.
7:18 AM 8:29 PM
New Moon, 1% visible
METAR MMCZ 232352Z 08008KT 7SM BKN015TCU BKN250 30/26 A2994 RMK SLP142 57003 964 8/208

Get Severe Weather Alerts

Thanks for signing up!

Be on the lookout for a verification email in your inbox.

You'll start receiving the daily forecast at 6 AM.

×

10-Day Weather Forecast

No radar image for this location.
×

Almanac

Astronomy

Jul. 23, 2017 Rise Set
Actual Time
Civil Twilight
Nautical Twilight
Astronomical Twilight
Moon
Length of Visible Light
Length of Day
Tomorrow will be .
, % of the Moon is Illuminated

Today's Extremes

Country Highs Country Lows

Community

WunderPhotos

Category 6

Welcome to Category 6. This is the collective home for Weather Underground's featured writeups by Dr. Jeff Masters (right), Bob Henson (left), Chris Burt, and other regular contributors.

Nearby

Air Quality

  Air Quality AQ Index Pollutant
Not available.

Snow Depth

Station Depth Elevation

Earthquake Activity

City Distance Mag. Time & Date
Minimum magnitude displayed is 2.5.

Coastal Water Temperatures

Place Temperature

Stations

Nearby Weather Stations

Station Location Temp. Windchill Dew Point Humidity Wind Precip. Elev Updated Type